PWSweather.com
Personal Weather Stations
Station Observations
IRIVIRED2
île Maurice, Petit RaffrayMU

île MauricePetit RaffrayMU

Lat: -20.02533, Lon: 57.61883

Elevation: 183

Station Type: Davis Vantage Pro2 plus

http://www.meteomauritius.altervista.org

High Low Average
Temperature 79.3°F26.3°C 71.8°F22.1°C 75.6°F24.2°C
Dew Point 72.5°F22.5°C 65.0°F18.3°C 69.2°F20.7°C
Winds 15.0 mph 24.1 kmh Calm Calm 6.0 mph ESE9.7 kmh ESE
Wind Gusts 26.5 mph42.6 kmh -- 12.0 mph19.3 kmh
Humidity 91% 69% 81%
Pressure 30.18 in1022.0 mb 30.10 in1019.3 mb -
Precipitation 0.19 in4.8 mm - -
Hour Temp Dew Point Humidity Winds Wind Gusts Pressure Precip Precip Rate Daily Precip Total
12:00 AM 73.8°F23.2°C 70.7°F21.5°C 90% Calm Calm 3.5 mph5.6 kmh 30.13 in1020.3 mb - 0.00 in0.0 mm 0.00 in0.0 mm
12:10 AM 73.7°F23.2°C 70.6°F21.4°C 90% Calm Calm -- 30.13 in1020.3 mb - 0.00 in0.0 mm 0.00 in0.0 mm
12:20 AM 73.6°F23.1°C 70.5°F21.4°C 90% Calm Calm 3.5 mph5.6 kmh 30.12 in1020.0 mb - 0.00 in0.0 mm 0.00 in0.0 mm
12:30 AM 73.8°F23.2°C 70.7°F21.5°C 90% 2.3 mph SE3.7 kmh SE 6.9 mph11.1 kmh 30.12 in1020.0 mb - 0.00 in0.0 mm 0.00 in0.0 mm
12:40 AM 73.9°F23.3°C 70.5°F21.4°C 89% 5.8 mph SE9.3 kmh SE 8.1 mph13.0 kmh 30.12 in1020.0 mb - 0.00 in0.0 mm 0.00 in0.0 mm
01:00 AM 74.5°F23.6°C 70.7°F21.5°C 88% 5.8 mph SE9.3 kmh SE 9.2 mph14.8 kmh 30.12 in1020.0 mb - 0.00 in0.0 mm 0.00 in0.0 mm
01:10 AM 74.4°F23.6°C 70.6°F21.4°C 88% Calm Calm -- 30.12 in1020.0 mb - 0.00 in0.0 mm 0.00 in0.0 mm
01:20 AM 74.1°F23.4°C 70.6°F21.4°C 89% Calm Calm 3.5 mph5.6 kmh 30.12 in1020.0 mb - 0.00 in0.0 mm 0.00 in0.0 mm
01:30 AM 73.6°F23.1°C 69.9°F21.1°C 88% Calm Calm -- 30.12 in1020.0 mb - 0.00 in0.0 mm 0.00 in0.0 mm
01:40 AM 73.4°F23.0°C 70.0°F21.1°C 89% 2.3 mph SE3.7 kmh SE 4.6 mph7.4 kmh 30.12 in1020.0 mb - 0.00 in0.0 mm 0.00 in0.0 mm
01:50 AM 73.3°F22.9°C 69.9°F21.1°C 89% 1.2 mph SE1.9 kmh SE 4.6 mph7.4 kmh 30.12 in1020.0 mb - 0.00 in0.0 mm 0.00 in0.0 mm
02:00 AM 73.4°F23.0°C 70.0°F21.1°C 89% 2.3 mph SE3.7 kmh SE 3.5 mph5.6 kmh 30.11 in1019.6 mb - 0.00 in0.0 mm 0.00 in0.0 mm
02:10 AM 73.6°F23.1°C 69.8°F21.0°C 88% Calm Calm -- 30.11 in1019.6 mb - 0.00 in0.0 mm 0.00 in0.0 mm
02:20 AM 73.7°F23.2°C 70.3°F21.3°C 89% Calm Calm -- 30.11 in1019.6 mb - 0.00 in0.0 mm 0.00 in0.0 mm
02:30 AM 73.3°F22.9°C 69.9°F21.1°C 89% 4.6 mph ESE7.4 kmh ESE 10.4 mph16.7 kmh 30.11 in1019.6 mb - 0.00 in0.0 mm 0.00 in0.0 mm
02:40 AM 73.7°F23.2°C 69.6°F20.9°C 87% 3.5 mph SE5.6 kmh SE 5.8 mph9.3 kmh 30.11 in1019.6 mb - 0.00 in0.0 mm 0.00 in0.0 mm
02:50 AM 74.1°F23.4°C 69.9°F21.1°C 87% 4.6 mph SE7.4 kmh SE 4.6 mph7.4 kmh 30.10 in1019.3 mb - 0.00 in0.0 mm 0.00 in0.0 mm
03:00 AM 74.0°F23.3°C 69.9°F21.1°C 87% 4.6 mph ESE7.4 kmh ESE 9.2 mph14.8 kmh 30.10 in1019.3 mb - 0.00 in0.0 mm 0.00 in0.0 mm
03:10 AM 73.9°F23.3°C 69.7°F20.9°C 87% 1.2 mph E1.9 kmh E 4.6 mph7.4 kmh 30.10 in1019.3 mb - 0.00 in0.0 mm 0.00 in0.0 mm
03:20 AM 73.7°F23.2°C 69.6°F20.9°C 87% 2.3 mph SE3.7 kmh SE 3.5 mph5.6 kmh 30.10 in1019.3 mb - 0.00 in0.0 mm 0.00 in0.0 mm
03:30 AM 73.7°F23.2°C 69.9°F21.1°C 88% 2.3 mph SE3.7 kmh SE 4.6 mph7.4 kmh 30.10 in1019.3 mb - 0.00 in0.0 mm 0.00 in0.0 mm
03:40 AM 73.5°F23.1°C 69.7°F20.9°C 88% Calm Calm -- 30.10 in1019.3 mb - 0.00 in0.0 mm 0.00 in0.0 mm
03:50 AM 73.2°F22.9°C 69.8°F21.0°C 89% Calm Calm -- 30.10 in1019.3 mb - 0.00 in0.0 mm 0.00 in0.0 mm
04:00 AM 73.2°F22.9°C 70.1°F21.2°C 90% 2.3 mph ESE3.7 kmh ESE 4.6 mph7.4 kmh 30.10 in1019.3 mb - 0.00 in0.0 mm 0.00 in0.0 mm
04:10 AM 73.8°F23.2°C 70.3°F21.3°C 89% 2.3 mph ESE3.7 kmh ESE 8.1 mph13.0 kmh 30.10 in1019.3 mb - 0.00 in0.0 mm 0.00 in0.0 mm
04:20 AM 74.2°F23.4°C 70.4°F21.3°C 88% 3.5 mph SE5.6 kmh SE 8.1 mph13.0 kmh 30.10 in1019.3 mb - 0.00 in0.0 mm 0.00 in0.0 mm
04:30 AM 74.3°F23.5°C 70.5°F21.4°C 88% 4.6 mph SE7.4 kmh SE 6.9 mph11.1 kmh 30.10 in1019.3 mb - 0.00 in0.0 mm 0.00 in0.0 mm
04:40 AM 74.3°F23.5°C 70.5°F21.4°C 88% 4.6 mph ESE7.4 kmh ESE 9.2 mph14.8 kmh 30.10 in1019.3 mb - 0.02 in0.5 mm 0.02 in0.5 mm
04:50 AM 73.5°F23.1°C 70.4°F21.3°C 90% 4.6 mph SE7.4 kmh SE 8.1 mph13.0 kmh 30.10 in1019.3 mb - 0.00 in0.0 mm 0.02 in0.5 mm
05:00 AM 73.0°F22.8°C 69.9°F21.1°C 90% 9.2 mph E14.8 kmh E 12.7 mph20.4 kmh 30.11 in1019.6 mb - 0.00 in0.0 mm 0.02 in0.5 mm
05:10 AM 71.8°F22.1°C 68.7°F20.4°C 90% 3.5 mph E5.6 kmh E 8.1 mph13.0 kmh 30.11 in1019.6 mb - 0.03 in0.8 mm 0.05 in1.3 mm
05:20 AM 72.0°F22.2°C 69.2°F20.7°C 91% 3.5 mph E5.6 kmh E 9.2 mph14.8 kmh 30.11 in1019.6 mb - 0.00 in0.0 mm 0.05 in1.3 mm
05:30 AM 72.3°F22.4°C 69.5°F20.8°C 91% 4.6 mph ESE7.4 kmh ESE 11.5 mph18.5 kmh 30.11 in1019.6 mb - 0.01 in0.3 mm 0.06 in1.5 mm
05:40 AM 72.5°F22.5°C 69.7°F20.9°C 91% 4.6 mph ESE7.4 kmh ESE 6.9 mph11.1 kmh 30.11 in1019.6 mb - 0.00 in0.0 mm 0.06 in1.5 mm
05:50 AM 72.5°F22.5°C 69.7°F20.9°C 91% 3.5 mph E5.6 kmh E 9.2 mph14.8 kmh 30.11 in1019.6 mb - 0.00 in0.0 mm 0.06 in1.5 mm
06:00 AM 72.5°F22.5°C 69.7°F20.9°C 91% 2.3 mph SE3.7 kmh SE 10.4 mph16.7 kmh 30.11 in1019.6 mb - 0.00 in0.0 mm 0.06 in1.5 mm
06:10 AM 72.7°F22.6°C 69.9°F21.1°C 91% 8.1 mph ESE13.0 kmh ESE 12.7 mph20.4 kmh 30.12 in1020.0 mb - 0.00 in0.0 mm 0.06 in1.5 mm
06:20 AM 72.8°F22.7°C 70.0°F21.1°C 91% 5.8 mph SE9.3 kmh SE 8.1 mph13.0 kmh 30.12 in1020.0 mb - 0.01 in0.3 mm 0.06 in1.5 mm
06:30 AM 72.6°F22.6°C 69.9°F21.1°C 91% 3.5 mph ESE5.6 kmh ESE 5.8 mph9.3 kmh 30.13 in1020.3 mb - 0.00 in0.0 mm 0.06 in1.5 mm
06:40 AM 72.5°F22.5°C 69.7°F20.9°C 91% 3.5 mph SE5.6 kmh SE 11.5 mph18.5 kmh 30.13 in1020.3 mb - 0.00 in0.0 mm 0.06 in1.5 mm
06:50 AM 72.7°F22.6°C 69.9°F21.1°C 91% 3.5 mph SE5.6 kmh SE 6.9 mph11.1 kmh 30.14 in1020.7 mb - 0.00 in0.0 mm 0.06 in1.5 mm
07:00 AM 72.8°F22.7°C 70.0°F21.1°C 91% 3.5 mph SE5.6 kmh SE 8.1 mph13.0 kmh 30.14 in1020.7 mb - 0.00 in0.0 mm 0.06 in1.5 mm
07:10 AM 73.1°F22.8°C 70.3°F21.3°C 91% 3.5 mph SE5.6 kmh SE 6.9 mph11.1 kmh 30.14 in1020.7 mb - 0.00 in0.0 mm 0.06 in1.5 mm
07:20 AM 73.1°F22.8°C 70.3°F21.3°C 91% 3.5 mph SE5.6 kmh SE 6.9 mph11.1 kmh 30.15 in1021.0 mb - 0.00 in0.0 mm 0.06 in1.5 mm
07:30 AM 73.2°F22.9°C 70.4°F21.3°C 91% 4.6 mph SE7.4 kmh SE 8.1 mph13.0 kmh 30.15 in1021.0 mb - 0.00 in0.0 mm 0.06 in1.5 mm
07:40 AM 73.5°F23.1°C 70.7°F21.5°C 91% 4.6 mph ESE7.4 kmh ESE 8.1 mph13.0 kmh 30.15 in1021.0 mb - 0.00 in0.0 mm 0.06 in1.5 mm
07:50 AM 74.0°F23.3°C 71.3°F21.8°C 91% 6.9 mph ESE11.1 kmh ESE 13.8 mph22.2 kmh 30.16 in1021.3 mb - 0.00 in0.0 mm 0.06 in1.5 mm
08:00 AM 74.8°F23.8°C 71.4°F21.9°C 89% 10.4 mph ESE16.7 kmh ESE 15.0 mph24.1 kmh 30.16 in1021.3 mb - 0.00 in0.0 mm 0.06 in1.5 mm
08:10 AM 75.8°F24.3°C 71.3°F21.8°C 86% 6.9 mph ESE11.1 kmh ESE 13.8 mph22.2 kmh 30.16 in1021.3 mb - 0.00 in0.0 mm 0.06 in1.5 mm
08:20 AM 75.7°F24.3°C 70.9°F21.6°C 85% 9.2 mph ESE14.8 kmh ESE 17.3 mph27.8 kmh 30.16 in1021.3 mb - 0.00 in0.0 mm 0.06 in1.5 mm
08:30 AM 75.3°F24.1°C 70.8°F21.6°C 86% 9.2 mph E14.8 kmh E 24.2 mph38.9 kmh 30.17 in1021.7 mb - 0.01 in0.3 mm 0.07 in1.8 mm
08:40 AM 76.0°F24.4°C 71.1°F21.7°C 85% 10.4 mph E16.7 kmh E 12.7 mph20.4 kmh 30.17 in1021.7 mb - 0.00 in0.0 mm 0.07 in1.8 mm
08:50 AM 76.3°F24.6°C 71.1°F21.7°C 84% 15.0 mph SE24.1 kmh SE 25.3 mph40.7 kmh 30.17 in1021.7 mb - 0.00 in0.0 mm 0.07 in1.8 mm
09:00 AM 76.1°F24.5°C 71.3°F21.8°C 85% 9.2 mph ESE14.8 kmh ESE 13.8 mph22.2 kmh 30.17 in1021.7 mb - 0.00 in0.0 mm 0.07 in1.8 mm
09:10 AM 76.7°F24.8°C 70.8°F21.6°C 82% 9.2 mph ESE14.8 kmh ESE 21.9 mph35.2 kmh 30.18 in1022.0 mb - 0.00 in0.0 mm 0.07 in1.8 mm
09:20 AM 76.6°F24.8°C 71.0°F21.7°C 83% 8.1 mph ESE13.0 kmh ESE 12.7 mph20.4 kmh 30.18 in1022.0 mb - 0.00 in0.0 mm 0.07 in1.8 mm
09:30 AM 75.5°F24.2°C 71.0°F21.7°C 86% 6.9 mph ESE11.1 kmh ESE 11.5 mph18.5 kmh 30.18 in1022.0 mb - 0.00 in0.0 mm 0.07 in1.8 mm
09:40 AM 76.8°F24.9°C 71.9°F22.2°C 85% 4.6 mph E7.4 kmh E 13.8 mph22.2 kmh 30.18 in1022.0 mb - 0.00 in0.0 mm 0.07 in1.8 mm
09:50 AM 77.0°F25.0°C 71.8°F22.1°C 84% 2.3 mph ESE3.7 kmh ESE 13.8 mph22.2 kmh 30.18 in1022.0 mb - 0.00 in0.0 mm 0.07 in1.8 mm
10:00 AM 77.4°F25.2°C 71.1°F21.7°C 81% 6.9 mph E11.1 kmh E 13.8 mph22.2 kmh 30.18 in1022.0 mb - 0.00 in0.0 mm 0.07 in1.8 mm
10:10 AM 76.2°F24.6°C 71.0°F21.7°C 84% 12.7 mph ESE20.4 kmh ESE 23.0 mph37.0 kmh 30.18 in1022.0 mb - 0.00 in0.0 mm 0.07 in1.8 mm
10:20 AM 75.2°F24.0°C 71.4°F21.9°C 88% 9.2 mph ESE14.8 kmh ESE 24.2 mph38.9 kmh 30.18 in1022.0 mb - 0.00 in0.0 mm 0.07 in1.8 mm
10:30 AM 73.4°F23.0°C 69.2°F20.7°C 87% 9.2 mph ENE14.8 kmh ENE 13.8 mph22.2 kmh 30.18 in1022.0 mb - 0.04 in1.0 mm 0.11 in2.8 mm
10:40 AM 72.2°F22.3°C 69.1°F20.6°C 90% 2.3 mph ENE3.7 kmh ENE 2.3 mph3.7 kmh 30.17 in1021.7 mb - 0.06 in1.5 mm 0.16 in4.1 mm
10:50 AM 72.7°F22.6°C 69.9°F21.1°C 91% 4.6 mph E7.4 kmh E 11.5 mph18.5 kmh 30.16 in1021.3 mb - 0.03 in0.8 mm 0.19 in4.8 mm
11:00 AM 73.8°F23.2°C 70.7°F21.5°C 90% 6.9 mph SE11.1 kmh SE 12.7 mph20.4 kmh 30.16 in1021.3 mb - 0.00 in0.0 mm 0.19 in4.8 mm
11:10 AM 76.0°F24.4°C 72.5°F22.5°C 89% 10.4 mph E16.7 kmh E 21.9 mph35.2 kmh 30.16 in1021.3 mb - 0.00 in0.0 mm 0.19 in4.8 mm
11:20 AM 76.5°F24.7°C 72.3°F22.4°C 87% 5.8 mph E9.3 kmh E 17.3 mph27.8 kmh 30.16 in1021.3 mb - 0.00 in0.0 mm 0.19 in4.8 mm
11:30 AM 76.8°F24.9°C 70.9°F21.6°C 82% 10.4 mph ESE16.7 kmh ESE 16.1 mph25.9 kmh 30.16 in1021.3 mb - 0.00 in0.0 mm 0.19 in4.8 mm
11:40 AM 76.8°F24.9°C 70.9°F21.6°C 82% 8.1 mph E13.0 kmh E 13.8 mph22.2 kmh 30.16 in1021.3 mb - 0.00 in0.0 mm 0.19 in4.8 mm
11:50 AM 77.5°F25.3°C 70.8°F21.6°C 80% 9.2 mph ESE14.8 kmh ESE 23.0 mph37.0 kmh 30.15 in1021.0 mb - 0.00 in0.0 mm 0.19 in4.8 mm
12:00 PM 78.0°F25.6°C 71.3°F21.8°C 80% 4.6 mph E7.4 kmh E 11.5 mph18.5 kmh 30.15 in1021.0 mb - 0.00 in0.0 mm 0.19 in4.8 mm
12:10 PM 78.4°F25.8°C 70.9°F21.6°C 78% 8.1 mph E13.0 kmh E 18.4 mph29.6 kmh 30.15 in1021.0 mb - 0.00 in0.0 mm 0.19 in4.8 mm
12:20 PM 78.7°F25.9°C 71.3°F21.8°C 78% 10.4 mph ESE16.7 kmh ESE 18.4 mph29.6 kmh 30.14 in1020.7 mb - 0.00 in0.0 mm 0.19 in4.8 mm
12:30 PM 78.8°F26.0°C 71.3°F21.8°C 78% 9.2 mph E14.8 kmh E 25.3 mph40.7 kmh 30.14 in1020.7 mb - 0.00 in0.0 mm 0.19 in4.8 mm
12:40 PM 78.6°F25.9°C 70.8°F21.6°C 77% 10.4 mph ESE16.7 kmh ESE 21.9 mph35.2 kmh 30.14 in1020.7 mb - 0.00 in0.0 mm 0.19 in4.8 mm
12:50 PM 78.5°F25.8°C 70.3°F21.3°C 76% 6.9 mph ESE11.1 kmh ESE 8.1 mph13.0 kmh 30.13 in1020.3 mb - 0.00 in0.0 mm 0.19 in4.8 mm
01:00 PM 78.6°F25.9°C 70.8°F21.6°C 77% 12.7 mph ESE20.4 kmh ESE 21.9 mph35.2 kmh 30.13 in1020.3 mb - 0.00 in0.0 mm 0.19 in4.8 mm
01:10 PM 78.2°F25.7°C 71.1°F21.7°C 79% 8.1 mph ESE13.0 kmh ESE 21.9 mph35.2 kmh 30.12 in1020.0 mb - 0.00 in0.0 mm 0.19 in4.8 mm
01:20 PM 77.5°F25.3°C 70.5°F21.4°C 79% 15.0 mph SE24.1 kmh SE 23.0 mph37.0 kmh 30.12 in1020.0 mb - 0.00 in0.0 mm 0.19 in4.8 mm
01:30 PM 77.7°F25.4°C 71.4°F21.9°C 81% 6.9 mph ESE11.1 kmh ESE 17.3 mph27.8 kmh 30.12 in1020.0 mb - 0.00 in0.0 mm 0.19 in4.8 mm
01:40 PM 78.0°F25.6°C 71.3°F21.8°C 80% 6.9 mph ESE11.1 kmh ESE 13.8 mph22.2 kmh 30.12 in1020.0 mb - 0.00 in0.0 mm 0.19 in4.8 mm
01:50 PM 77.8°F25.4°C 70.1°F21.2°C 77% 11.5 mph ESE18.5 kmh ESE 24.2 mph38.9 kmh 30.11 in1019.6 mb - 0.00 in0.0 mm 0.19 in4.8 mm
02:00 PM 78.4°F25.8°C 69.8°F21.0°C 75% 9.2 mph E14.8 kmh E 16.1 mph25.9 kmh 30.11 in1019.6 mb - 0.00 in0.0 mm 0.19 in4.8 mm
02:10 PM 78.6°F25.9°C 70.1°F21.2°C 75% 9.2 mph ESE14.8 kmh ESE 15.0 mph24.1 kmh 30.11 in1019.6 mb - 0.00 in0.0 mm 0.19 in4.8 mm
02:20 PM 78.6°F25.9°C 70.0°F21.1°C 75% 9.2 mph ESE14.8 kmh ESE 18.4 mph29.6 kmh 30.10 in1019.3 mb - 0.00 in0.0 mm 0.19 in4.8 mm
02:30 PM 78.6°F25.9°C 70.0°F21.1°C 75% 15.0 mph E24.1 kmh E 26.5 mph42.6 kmh 30.10 in1019.3 mb - 0.00 in0.0 mm 0.19 in4.8 mm
02:40 PM 78.8°F26.0°C 70.6°F21.4°C 76% 11.5 mph ESE18.5 kmh ESE 24.2 mph38.9 kmh 30.10 in1019.3 mb - 0.00 in0.0 mm 0.19 in4.8 mm
02:50 PM 78.6°F25.9°C 70.4°F21.3°C 76% 6.9 mph E11.1 kmh E 12.7 mph20.4 kmh 30.10 in1019.3 mb - 0.00 in0.0 mm 0.19 in4.8 mm
03:00 PM 79.0°F26.1°C 70.4°F21.3°C 75% 12.7 mph ESE20.4 kmh ESE 25.3 mph40.7 kmh 30.10 in1019.3 mb - 0.00 in0.0 mm 0.19 in4.8 mm
03:10 PM 78.8°F26.0°C 69.8°F21.0°C 74% 9.2 mph E14.8 kmh E 19.6 mph31.5 kmh 30.10 in1019.3 mb - 0.00 in0.0 mm 0.19 in4.8 mm
03:20 PM 78.6°F25.9°C 69.2°F20.7°C 73% 5.8 mph ESE9.3 kmh ESE 16.1 mph25.9 kmh 30.11 in1019.6 mb - 0.00 in0.0 mm 0.19 in4.8 mm
03:30 PM 79.3°F26.3°C 69.9°F21.1°C 73% 13.8 mph ESE22.2 kmh ESE 23.0 mph37.0 kmh 30.11 in1019.6 mb - 0.00 in0.0 mm 0.19 in4.8 mm
03:40 PM 79.3°F26.3°C 69.5°F20.8°C 72% 9.2 mph ESE14.8 kmh ESE 17.3 mph27.8 kmh 30.11 in1019.6 mb - 0.00 in0.0 mm 0.19 in4.8 mm
03:50 PM 78.4°F25.8°C 69.4°F20.8°C 74% 4.6 mph ESE7.4 kmh ESE 13.8 mph22.2 kmh 30.11 in1019.6 mb - 0.00 in0.0 mm 0.19 in4.8 mm
04:00 PM 77.9°F25.5°C 68.5°F20.3°C 73% 8.1 mph ESE13.0 kmh ESE 13.8 mph22.2 kmh 30.11 in1019.6 mb - 0.00 in0.0 mm 0.19 in4.8 mm
04:10 PM 77.9°F25.5°C 68.9°F20.5°C 74% 9.2 mph SE14.8 kmh SE 18.4 mph29.6 kmh 30.11 in1019.6 mb - 0.00 in0.0 mm 0.19 in4.8 mm
04:20 PM 77.8°F25.4°C 68.8°F20.4°C 74% 9.2 mph ESE14.8 kmh ESE 17.3 mph27.8 kmh 30.11 in1019.6 mb - 0.00 in0.0 mm 0.19 in4.8 mm
04:30 PM 77.7°F25.4°C 69.1°F20.6°C 75% 5.8 mph ESE9.3 kmh ESE 12.7 mph20.4 kmh 30.11 in1019.6 mb - 0.00 in0.0 mm 0.19 in4.8 mm
04:40 PM 77.6°F25.3°C 69.0°F20.6°C 75% 8.1 mph ESE13.0 kmh ESE 17.3 mph27.8 kmh 30.12 in1020.0 mb - 0.00 in0.0 mm 0.19 in4.8 mm
05:10 PM 77.4°F25.2°C 68.5°F20.3°C 74% 10.4 mph ESE16.7 kmh ESE 16.1 mph25.9 kmh 30.12 in1020.0 mb - 0.00 in0.0 mm 0.19 in4.8 mm
05:20 PM 77.2°F25.1°C 67.9°F19.9°C 73% 4.6 mph ESE7.4 kmh ESE 12.7 mph20.4 kmh 30.12 in1020.0 mb - 0.00 in0.0 mm 0.19 in4.8 mm
05:30 PM 77.0°F25.0°C 67.3°F19.6°C 72% 8.1 mph SE13.0 kmh SE 23.0 mph37.0 kmh 30.13 in1020.3 mb - 0.00 in0.0 mm 0.19 in4.8 mm
05:40 PM 76.8°F24.9°C 66.6°F19.2°C 71% 8.1 mph ESE13.0 kmh ESE 11.5 mph18.5 kmh 30.13 in1020.3 mb - 0.00 in0.0 mm 0.19 in4.8 mm
05:50 PM 76.6°F24.8°C 66.9°F19.4°C 72% 2.3 mph E3.7 kmh E 11.5 mph18.5 kmh 30.13 in1020.3 mb - 0.00 in0.0 mm 0.19 in4.8 mm
06:00 PM 76.5°F24.7°C 66.8°F19.3°C 72% 8.1 mph ESE13.0 kmh ESE 15.0 mph24.1 kmh 30.13 in1020.3 mb - 0.00 in0.0 mm 0.19 in4.8 mm
06:10 PM 76.5°F24.7°C 66.8°F19.3°C 72% 6.9 mph E11.1 kmh E 13.8 mph22.2 kmh 30.14 in1020.7 mb - 0.00 in0.0 mm 0.19 in4.8 mm
06:20 PM 76.3°F24.6°C 66.6°F19.2°C 72% 6.9 mph SE11.1 kmh SE 17.3 mph27.8 kmh 30.14 in1020.7 mb - 0.00 in0.0 mm 0.19 in4.8 mm
06:30 PM 76.2°F24.6°C 66.9°F19.4°C 73% 6.9 mph SE11.1 kmh SE 9.2 mph14.8 kmh 30.14 in1020.7 mb - 0.00 in0.0 mm 0.19 in4.8 mm
06:40 PM 76.1°F24.5°C 66.8°F19.3°C 73% 5.8 mph ESE9.3 kmh ESE 11.5 mph18.5 kmh 30.14 in1020.7 mb - 0.00 in0.0 mm 0.19 in4.8 mm
06:50 PM 76.2°F24.6°C 66.9°F19.4°C 73% 4.6 mph ESE7.4 kmh ESE 12.7 mph20.4 kmh 30.15 in1021.0 mb - 0.00 in0.0 mm 0.19 in4.8 mm
07:00 PM 76.2°F24.6°C 66.9°F19.4°C 73% 6.9 mph ESE11.1 kmh ESE 15.0 mph24.1 kmh 30.15 in1021.0 mb - 0.00 in0.0 mm 0.19 in4.8 mm
07:10 PM 76.4°F24.7°C 67.1°F19.5°C 73% 9.2 mph ESE14.8 kmh ESE 11.5 mph18.5 kmh 30.15 in1021.0 mb - 0.00 in0.0 mm 0.19 in4.8 mm
07:20 PM 76.2°F24.6°C 66.9°F19.4°C 73% 8.1 mph E13.0 kmh E 15.0 mph24.1 kmh 30.15 in1021.0 mb - 0.00 in0.0 mm 0.19 in4.8 mm
07:30 PM 76.2°F24.6°C 66.1°F18.9°C 71% 8.1 mph ESE13.0 kmh ESE 10.4 mph16.7 kmh 30.16 in1021.3 mb - 0.00 in0.0 mm 0.19 in4.8 mm
07:40 PM 76.2°F24.6°C 66.1°F18.9°C 71% 9.2 mph ESE14.8 kmh ESE 15.0 mph24.1 kmh 30.16 in1021.3 mb - 0.00 in0.0 mm 0.19 in4.8 mm
07:50 PM 76.2°F24.6°C 66.1°F18.9°C 71% 6.9 mph ESE11.1 kmh ESE 9.2 mph14.8 kmh 30.16 in1021.3 mb - 0.00 in0.0 mm 0.19 in4.8 mm
08:00 PM 75.9°F24.4°C 65.9°F18.8°C 71% 6.9 mph ESE11.1 kmh ESE 15.0 mph24.1 kmh 30.16 in1021.3 mb - 0.00 in0.0 mm 0.19 in4.8 mm
08:10 PM 76.0°F24.4°C 65.5°F18.6°C 70% 4.6 mph SE7.4 kmh SE 12.7 mph20.4 kmh 30.16 in1021.3 mb - 0.00 in0.0 mm 0.19 in4.8 mm
08:20 PM 75.7°F24.3°C 65.6°F18.7°C 71% 1.2 mph ESE1.9 kmh ESE 8.1 mph13.0 kmh 30.16 in1021.3 mb - 0.00 in0.0 mm 0.19 in4.8 mm
08:30 PM 75.4°F24.1°C 65.3°F18.5°C 71% 2.3 mph SE3.7 kmh SE 12.7 mph20.4 kmh 30.17 in1021.7 mb - 0.00 in0.0 mm 0.19 in4.8 mm
08:40 PM 75.5°F24.2°C 65.0°F18.3°C 70% Calm Calm 8.1 mph13.0 kmh 30.17 in1021.7 mb - 0.00 in0.0 mm 0.19 in4.8 mm
08:50 PM 75.4°F24.1°C 65.0°F18.3°C 70% 2.3 mph E3.7 kmh E 9.2 mph14.8 kmh 30.17 in1021.7 mb - 0.00 in0.0 mm 0.19 in4.8 mm
09:00 PM 75.5°F24.2°C 65.0°F18.3°C 70% 1.2 mph ESE1.9 kmh ESE -- 30.17 in1021.7 mb - 0.00 in0.0 mm 0.19 in4.8 mm
09:10 PM 75.5°F24.2°C 65.4°F18.6°C 71% 2.3 mph ESE3.7 kmh ESE 4.6 mph7.4 kmh 30.17 in1021.7 mb - 0.00 in0.0 mm 0.19 in4.8 mm
09:20 PM 75.4°F24.1°C 66.1°F18.9°C 73% 1.2 mph ESE1.9 kmh ESE -- 30.17 in1021.7 mb - 0.00 in0.0 mm 0.19 in4.8 mm
09:30 PM 75.5°F24.2°C 66.6°F19.2°C 74% 1.2 mph ESE1.9 kmh ESE 8.1 mph13.0 kmh 30.17 in1021.7 mb - 0.00 in0.0 mm 0.19 in4.8 mm
09:40 PM 75.4°F24.1°C 66.9°F19.4°C 75% 8.1 mph E13.0 kmh E 10.4 mph16.7 kmh 30.16 in1021.3 mb - 0.00 in0.0 mm 0.19 in4.8 mm
09:50 PM 75.5°F24.2°C 67.4°F19.7°C 76% 4.6 mph SE7.4 kmh SE 5.8 mph9.3 kmh 30.16 in1021.3 mb - 0.00 in0.0 mm 0.19 in4.8 mm
10:00 PM 75.4°F24.1°C 67.7°F19.8°C 77% 5.8 mph E9.3 kmh E 11.5 mph18.5 kmh 30.16 in1021.3 mb - 0.00 in0.0 mm 0.19 in4.8 mm
10:10 PM 75.7°F24.3°C 66.1°F18.9°C 72% 8.1 mph ESE13.0 kmh ESE 15.0 mph24.1 kmh 30.17 in1021.7 mb - 0.00 in0.0 mm 0.19 in4.8 mm
10:20 PM 76.1°F24.5°C 65.6°F18.7°C 70% 6.9 mph E11.1 kmh E 13.8 mph22.2 kmh 30.17 in1021.7 mb - 0.00 in0.0 mm 0.19 in4.8 mm
10:30 PM 76.1°F24.5°C 66.0°F18.9°C 71% 6.9 mph E11.1 kmh E 10.4 mph16.7 kmh 30.17 in1021.7 mb - 0.00 in0.0 mm 0.19 in4.8 mm
10:40 PM 76.3°F24.6°C 66.2°F19.0°C 71% 9.2 mph E14.8 kmh E 15.0 mph24.1 kmh 30.17 in1021.7 mb - 0.00 in0.0 mm 0.19 in4.8 mm
10:50 PM 76.2°F24.6°C 65.3°F18.5°C 69% 8.1 mph E13.0 kmh E 17.3 mph27.8 kmh 30.17 in1021.7 mb - 0.00 in0.0 mm 0.19 in4.8 mm
11:00 PM 76.2°F24.6°C 65.3°F18.5°C 69% 6.9 mph ESE11.1 kmh ESE 13.8 mph22.2 kmh 30.17 in1021.7 mb - 0.00 in0.0 mm 0.19 in4.8 mm
11:10 PM 76.2°F24.6°C 65.3°F18.5°C 69% 3.5 mph ESE5.6 kmh ESE 9.2 mph14.8 kmh 30.17 in1021.7 mb - 0.00 in0.0 mm 0.19 in4.8 mm
11:20 PM 75.9°F24.4°C 65.9°F18.8°C 71% 4.6 mph ESE7.4 kmh ESE 9.2 mph14.8 kmh 30.17 in1021.7 mb - 0.00 in0.0 mm 0.19 in4.8 mm
11:30 PM 75.8°F24.3°C 65.7°F18.7°C 71% 3.5 mph ESE5.6 kmh ESE 11.5 mph18.5 kmh 30.17 in1021.7 mb - 0.00 in0.0 mm 0.19 in4.8 mm
11:40 PM 75.9°F24.4°C 65.9°F18.8°C 71% 4.6 mph ESE7.4 kmh ESE 6.9 mph11.1 kmh 30.17 in1021.7 mb - 0.00 in0.0 mm 0.19 in4.8 mm
11:50 PM 75.8°F24.3°C 66.6°F19.2°C 73% Calm Calm -- 30.17 in1021.7 mb - 0.00 in0.0 mm 0.19 in4.8 mm